Time;durP1;ratioP1;P1;durP2;ratioP2;P2;SDS_P1;SDS_P2;PMS_P1;PMS_P2;Temp;Humidity;BMP_temperature;BMP_pressure;BME280_temperature;BME280_humidity;BME280_pressure;Samples;Min_cycle;Max_cycle;Signal;HPM_P1;HPM_P2
2021/11/03 00:02:44;;;;;;;25.98;14.43;;;;;;;6.75;100.00;100643.06;5003442;28;20052;-57
2021/11/03 00:05:29;;;;;;;27.00;13.82;;;;;;;6.74;100.00;100635.13;5003558;28;20105;-71
2021/11/03 00:08:20;;;;;;;27.65;14.27;;;;;;;6.67;100.00;100642.09;5014611;28;20826;-67
2021/11/03 00:11:05;;;;;;;35.33;14.68;;;;;;;6.57;100.00;100634.09;5003014;28;20064;-63
2021/11/03 00:13:50;;;;;;;25.70;13.88;;;;;;;6.69;100.00;100632.44;5015947;28;21494;-61
2021/11/03 00:16:34;;;;;;;25.67;14.02;;;;;;;6.75;100.00;100634.25;5020561;28;20064;-63
2021/11/03 00:19:20;;;;;;;26.10;13.73;;;;;;;6.71;100.00;100632.47;5019713;28;20120;-63
2021/11/03 00:22:05;;;;;;;29.27;14.40;;;;;;;6.73;100.00;100633.38;5004576;28;20067;-65
2021/11/03 00:24:50;;;;;;;25.38;13.90;;;;;;;6.46;100.00;100606.75;5020243;28;20075;-65
2021/11/03 00:27:34;;;;;;;26.15;14.13;;;;;;;6.68;100.00;100632.47;5013531;28;20123;-70
2021/11/03 00:30:20;;;;;;;23.45;12.95;;;;;;;6.77;100.00;100630.75;4995890;28;20049;-61
2021/11/03 00:33:06;;;;;;;27.13;14.45;;;;;;;6.86;100.00;100629.97;5012423;28;20382;-63
2021/11/03 00:35:52;;;;;;;29.65;14.07;;;;;;;6.75;100.00;100631.63;5018490;28;20484;-62
2021/11/03 00:38:36;;;;;;;26.27;13.77;;;;;;;6.83;100.00;100627.28;5012234;28;20053;-63
2021/11/03 00:41:21;;;;;;;26.60;14.45;;;;;;;6.74;100.00;100624.59;5010528;28;20057;-66
2021/11/03 00:44:06;;;;;;;26.77;13.73;;;;;;;6.82;100.00;100623.81;5014819;28;20096;-61
2021/11/03 00:46:54;;;;;;;26.20;13.15;;;;;;;6.83;100.00;100624.66;5015228;28;20091;-62
2021/11/03 00:49:38;;;;;;;26.98;13.23;;;;;;;6.81;100.00;100624.66;5022776;28;20140;-60
2021/11/03 00:52:24;;;;;;;26.42;14.07;;;;;;;6.77;100.00;100628.13;5016860;28;20052;-60
2021/11/03 00:55:10;;;;;;;26.85;14.23;;;;;;;6.86;100.00;100620.31;4989886;28;20199;-58
2021/11/03 00:57:56;;;;;;;23.80;13.05;;;;;;;6.86;100.00;100615.06;5018681;28;20417;-61
2021/11/03 01:00:40;;;;;;;25.63;13.15;;;;;;;6.89;100.00;100617.69;5016024;28;20099;-61
2021/11/03 01:03:25;;;;;;;26.63;13.35;;;;;;;6.88;100.00;100615.06;5018165;28;20056;-63
2021/11/03 01:06:11;;;;;;;25.73;13.52;;;;;;;6.93;100.00;100624.75;5002035;28;20048;-60
2021/11/03 01:08:56;;;;;;;25.08;13.52;;;;;;;6.99;100.00;100616.00;5017527;28;20422;-60
2021/11/03 01:11:41;;;;;;;27.63;14.27;;;;;;;7.00;100.00;100613.38;5012721;28;20549;-60
2021/11/03 01:14:26;;;;;;;25.45;12.88;;;;;;;7.10;100.00;100612.59;5003107;28;20493;-60
2021/11/03 01:17:11;;;;;;;26.27;13.30;;;;;;;7.07;100.00;100601.13;5019111;28;20052;-63
2021/11/03 01:19:56;;;;;;;26.98;13.35;;;;;;;7.10;100.00;100604.69;5012169;28;20049;-64
2021/11/03 01:22:43;;;;;;;29.38;15.23;;;;;;;7.08;100.00;100609.06;4986843;28;20154;-61
2021/11/03 01:25:29;;;;;;;26.88;13.18;;;;;;;6.89;100.00;100607.13;5020721;28;20053;-60
2021/11/03 01:28:14;;;;;;;27.85;13.98;;;;;;;6.99;100.00;100609.00;5019271;28;20097;-65
2021/11/03 01:30:59;;;;;;;26.60;13.82;;;;;;;7.03;100.00;100601.97;5020201;28;20818;-59
2021/11/03 01:33:43;;;;;;;30.83;14.90;;;;;;;6.93;100.00;100589.63;5023221;28;20083;-61
2021/11/03 01:36:29;;;;;;;26.73;15.35;;;;;;;7.01;100.00;100601.97;5019230;28;20468;-62
2021/11/03 01:39:13;;;;;;;31.05;14.55;;;;;;;6.93;100.00;100597.53;5004063;28;20053;-65
2021/11/03 01:41:59;;;;;;;28.02;14.05;;;;;;;6.87;100.00;100600.09;5000074;28;20088;-60
2021/11/03 01:44:44;;;;;;;31.95;15.15;;;;;;;6.85;100.00;100601.84;5009490;28;20056;-67
2021/11/03 01:47:51;;;;;;;25.52;13.93;;;;;;;7.01;100.00;100586.13;4997898;28;20099;-62
2021/11/03 01:50:54;;;;;;;29.85;15.35;;;;;;;7.04;100.00;100594.06;5025289;28;20060;-58
2021/11/03 01:53:40;;;;;;;29.60;14.82;;;;;;;7.13;100.00;100596.81;5027054;28;20064;-61
2021/11/03 01:56:27;;;;;;;30.27;14.35;;;;;;;7.13;100.00;100588.91;4996511;28;20425;-62
2021/11/03 01:59:15;;;;;;;27.63;13.88;;;;;;;7.19;100.00;100595.94;5020545;28;20103;-62
2021/11/03 02:02:02;;;;;;;29.55;15.15;;;;;;;7.14;100.00;100588.00;5022991;28;20060;-62
2021/11/03 02:04:48;;;;;;;28.77;14.07;;;;;;;7.23;100.00;100595.09;5024950;28;20041;-69
2021/11/03 02:07:35;;;;;;;29.15;14.18;;;;;;;7.30;100.00;100591.63;5026433;28;20091;-59
2021/11/03 02:10:22;;;;;;;28.50;14.80;;;;;;;7.29;100.00;100584.59;5022244;28;20044;-61
2021/11/03 02:13:12;;;;;;;25.98;13.98;;;;;;;7.26;100.00;100587.19;5025628;28;20084;-59
2021/11/03 02:15:58;;;;;;;28.70;14.15;;;;;;;7.18;100.00;100578.34;5026754;28;20055;-60
2021/11/03 02:18:45;;;;;;;27.17;13.95;;;;;;;7.13;100.00;100582.72;5020945;28;20080;-65
2021/11/03 02:21:39;;;;;;;28.23;14.65;;;;;;;7.24;100.00;100578.41;5010758;28;20048;-60
2021/11/03 02:24:31;;;;;;;25.83;13.68;;;;;;;7.21;100.00;100579.28;5010039;28;20064;-61
2021/11/03 02:27:19;;;;;;;31.73;13.90;;;;;;;7.20;100.00;100580.13;5024113;28;20120;-65
2021/11/03 02:30:11;;;;;;;29.83;14.73;;;;;;;7.21;100.00;100574.00;5023407;28;20055;-59
2021/11/03 02:33:08;;;;;;;31.02;15.18;;;;;;;7.27;100.00;100576.66;5020544;28;20138;-60
2021/11/03 02:36:07;;;;;;;30.80;15.23;;;;;;;7.29;100.00;100569.66;5021070;28;20052;-62
2021/11/03 02:38:53;;;;;;;28.08;14.18;;;;;;;7.23;100.00;100569.59;5024226;28;20060;-62
2021/11/03 02:41:38;;;;;;;29.95;14.98;;;;;;;7.30;100.00;100565.25;5002057;28;20807;-60
2021/11/03 02:44:28;;;;;;;31.75;14.50;;;;;;;7.29;100.00;100566.13;5021824;28;20052;-64
2021/11/03 02:47:12;;;;;;;30.58;14.65;;;;;;;7.34;100.00;100569.66;5026098;28;20088;-57
2021/11/03 02:49:57;;;;;;;31.25;14.90;;;;;;;7.34;100.00;100565.28;5009692;28;20485;-61
2021/11/03 02:52:42;;;;;;;29.08;14.88;;;;;;;7.26;100.00;100561.72;4996935;28;20084;-59
2021/11/03 02:55:28;;;;;;;30.08;14.85;;;;;;;7.33;100.00;100565.25;5019699;28;20100;-64
2021/11/03 02:58:12;;;;;;;32.38;15.50;;;;;;;7.27;100.00;100563.47;5009668;28;20271;-65
2021/11/03 03:01:09;;;;;;;30.33;15.27;;;;;;;7.42;100.00;100563.56;5024789;28;20052;-61
2021/11/03 03:03:53;;;;;;;31.15;16.17;;;;;;;7.35;100.00;100566.13;5024177;28;20460;-62
2021/11/03 03:06:39;;;;;;;31.67;15.23;;;;;;;7.15;100.00;100547.56;5023504;28;20107;-64
2021/11/03 03:09:27;;;;;;;32.55;15.95;;;;;;;7.20;100.00;100563.44;5010041;28;20614;-63
2021/11/03 03:12:16;;;;;;;32.08;15.32;;;;;;;7.18;100.00;100555.50;4994632;28;20176;-63
2021/11/03 03:15:04;;;;;;;35.13;16.80;;;;;;;7.26;100.00;100553.81;5010237;28;20186;-62
2021/11/03 03:17:50;;;;;;;36.53;15.73;;;;;;;7.23;100.00;100547.59;5009492;28;20534;-60
2021/11/03 03:20:35;;;;;;;34.03;15.73;;;;;;;7.21;100.00;100552.91;5029473;28;20099;-70
2021/11/03 03:23:20;;;;;;;37.13;16.38;;;;;;;7.02;100.00;100532.56;5022694;28;20044;-64
2021/11/03 03:26:07;;;;;;;31.98;15.60;;;;;;;7.05;100.00;100537.84;5021903;28;20057;-65
2021/11/03 03:28:58;;;;;;;34.28;15.88;;;;;;;7.22;100.00;100540.56;5025343;28;20048;-63
2021/11/03 03:31:44;;;;;;;33.05;15.50;;;;;;;7.23;100.00;100542.34;5014847;28;20532;-59
2021/11/03 03:34:33;;;;;;;37.15;16.60;;;;;;;7.25;100.00;100543.25;4998751;28;20127;-61
2021/11/03 03:37:18;;;;;;;35.83;16.60;;;;;;;7.29;100.00;100545.91;5010277;28;20060;-61
2021/11/03 03:40:04;;;;;;;37.22;16.67;;;;;;;7.34;100.00;100533.63;5001911;28;20525;-61
2021/11/03 03:42:48;;;;;;;33.72;15.98;;;;;;;7.31;100.00;100533.59;5010274;28;20103;-62
2021/11/03 03:45:33;;;;;;;33.70;16.77;;;;;;;7.21;100.00;100517.72;5006773;28;20076;-62
2021/11/03 03:48:18;;;;;;;36.67;16.33;;;;;;;7.30;100.00;100544.13;5023266;28;20053;-56
2021/11/03 03:51:04;;;;;;;34.25;15.93;;;;;;;7.29;100.00;100523.91;5025386;28;20139;-56
2021/11/03 03:53:50;;;;;;;37.75;17.15;;;;;;;7.22;100.00;100523.00;5019255;28;20410;-64
2021/11/03 03:56:38;;;;;;;34.45;16.50;;;;;;;7.16;100.00;100522.97;5015051;28;20072;-61
2021/11/03 03:59:24;;;;;;;41.67;17.50;;;;;;;7.20;100.00;100526.50;5024176;28;20059;-61
2021/11/03 04:02:09;;;;;;;37.28;17.35;;;;;;;7.28;100.00;100527.44;5035375;28;20099;-61
2021/11/03 04:04:55;;;;;;;37.80;16.95;;;;;;;7.29;100.00;100518.66;5024718;28;20103;-62
2021/11/03 04:07:39;;;;;;;34.13;17.23;;;;;;;7.32;100.00;100521.31;5025766;28;20123;-65
2021/11/03 04:10:24;;;;;;;38.63;17.38;;;;;;;7.39;100.00;100538.91;5025465;28;20048;-60
2021/11/03 04:13:14;;;;;;;36.63;16.95;;;;;;;7.30;100.00;100518.66;5008728;28;20055;-64
2021/11/03 04:15:59;;;;;;;36.75;16.38;;;;;;;7.23;100.00;100506.31;5009435;28;20099;-64
2021/11/03 04:18:44;;;;;;;37.50;17.92;;;;;;;7.23;100.00;100526.50;5023842;28;21059;-64
2021/11/03 04:21:29;;;;;;;37.60;17.35;;;;;;;7.26;100.00;100535.34;5024632;28;20052;-66
2021/11/03 04:24:14;;;;;;;;;;;;;;;7.40;100.00;100535.41;5026088;28;20137;-65
2021/11/03 04:27:00;;;;;;;34.72;16.38;;;;;;;7.42;100.00;100528.38;5017226;28;19967;-65
2021/11/03 04:29:45;;;;;;;41.22;17.13;;;;;;;7.44;100.00;100538.06;5023423;28;20590;-64
2021/11/03 04:32:32;;;;;;;37.20;17.05;;;;;;;7.34;100.00;100536.25;5023047;28;20060;-62
2021/11/03 04:35:17;;;;;;;34.60;17.10;;;;;;;7.33;100.00;100533.63;5018382;28;20541;-63
2021/11/03 04:38:03;;;;;;;38.72;17.38;;;;;;;7.27;100.00;100542.38;5026034;28;20100;-63
2021/11/03 04:40:47;;;;;;;39.00;18.25;;;;;;;7.15;100.00;100539.66;5008494;28;20110;-63
2021/11/03 04:43:32;;;;;;;41.72;18.77;;;;;;;7.24;100.00;100549.41;5023884;28;20555;-63
2021/11/03 04:46:18;;;;;;;42.97;19.17;;;;;;;7.23;100.00;100540.59;4986444;28;20096;-69
2021/11/03 04:49:04;;;;;;;40.60;18.50;;;;;;;7.25;100.00;100566.97;5009615;28;20056;-64
2021/11/03 04:51:49;;;;;;;37.03;17.25;;;;;;;7.36;100.00;100560.88;5009779;28;20041;-62
2021/11/03 04:54:35;;;;;;;37.10;16.92;;;;;;;7.33;100.00;100565.25;5010378;28;20136;-63
2021/11/03 04:57:20;;;;;;;41.03;17.65;;;;;;;7.42;100.00;100565.31;4996458;28;20052;-65
2021/11/03 05:00:14;;;;;;;38.60;16.65;;;;;;;7.44;100.00;100558.31;5026730;28;20126;-69
2021/11/03 05:03:00;;;;;;;39.88;17.30;;;;;;;7.31;100.00;100565.25;5008610;28;20124;-68
2021/11/03 05:05:47;;;;;;;38.40;17.17;;;;;;;7.32;100.00;100572.28;5031398;28;20134;-63
2021/11/03 05:08:35;;;;;;;39.97;18.15;;;;;;;7.32;100.00;100574.06;5029160;28;20056;-61
2021/11/03 05:11:22;;;;;;;40.13;18.38;;;;;;;7.28;100.00;100574.91;5013831;28;20459;-66
2021/11/03 05:14:08;;;;;;;40.17;18.98;;;;;;;7.38;100.00;100571.44;5012098;28;20499;-62
2021/11/03 05:16:58;;;;;;;42.13;17.92;;;;;;;7.35;100.00;100564.41;5021857;28;20051;-64
2021/11/03 05:19:43;;;;;;;45.35;19.95;;;;;;;7.27;100.00;100558.19;5012718;28;20064;-67
2021/11/03 05:22:36;;;;;;;42.20;19.90;;;;;;;7.31;100.00;100557.34;5012306;28;20055;-68
2021/11/03 05:25:25;;;;;;;38.13;18.20;;;;;;;7.37;100.00;100567.03;5028343;28;20065;-65
2021/11/03 05:28:11;;;;;;;39.80;18.00;;;;;;;7.48;100.00;100568.00;5026174;28;20084;-61
2021/11/03 05:30:58;;;;;;;40.22;17.90;;;;;;;7.44;100.00;100566.22;5029068;28;20616;-63
2021/11/03 05:33:46;;;;;;;36.60;17.60;;;;;;;7.48;100.00;100570.63;5028591;28;20140;-63
2021/11/03 05:36:32;;;;;;;41.47;19.42;;;;;;;7.52;100.00;100567.13;5023134;28;20048;-71
2021/11/03 05:39:17;;;;;;;39.53;19.08;;;;;;;7.46;100.00;100570.63;5028211;28;20072;-63
2021/11/03 05:42:03;;;;;;;46.67;20.17;;;;;;;7.45;100.00;100567.97;5011633;28;20060;-62
2021/11/03 05:44:48;;;;;;;42.95;18.98;;;;;;;7.42;100.00;100566.19;5027710;28;20920;-62
2021/11/03 05:47:32;;;;;;;42.90;18.77;;;;;;;7.54;100.00;100576.81;5008042;28;20052;-65
2021/11/03 05:50:24;;;;;;;43.38;18.85;;;;;;;7.50;100.00;100577.69;5028007;28;20056;-66
2021/11/03 05:53:09;;;;;;;44.67;19.27;;;;;;;7.48;100.00;100576.78;5022142;28;20521;-62
2021/11/03 05:55:53;;;;;;;44.20;19.85;;;;;;;7.41;100.00;100577.63;5009849;28;20137;-64
2021/11/03 05:58:38;;;;;;;44.90;20.70;;;;;;;7.52;100.00;100568.00;5005885;28;20387;-61
2021/11/03 06:01:23;;;;;;;44.75;19.92;;;;;;;7.46;100.00;100567.97;5026038;28;20048;-62
2021/11/03 06:04:07;;;;;;;42.47;20.05;;;;;;;7.59;100.00;100574.19;5026596;28;20757;-64
2021/11/03 06:06:52;;;;;;;51.10;20.38;;;;;;;7.63;100.00;100575.97;5027713;28;20053;-64
2021/11/03 06:09:37;;;;;;;45.97;19.83;;;;;;;7.53;100.00;100571.53;5017283;28;20053;-68
2021/11/03 06:12:22;;;;;;;40.20;19.73;;;;;;;7.59;100.00;100574.19;5028099;28;20055;-64
2021/11/03 06:15:06;;;;;;;40.00;19.33;;;;;;;7.67;100.00;100570.72;5024204;28;20326;-64
2021/11/03 06:17:52;;;;;;;40.90;18.25;;;;;;;7.66;100.00;100581.25;5012867;28;20060;-61
2021/11/03 06:20:36;;;;;;;;;;;;;;;7.77;100.00;100591.00;5025996;28;20910;-61
2021/11/03 06:23:21;;;;;;;43.75;19.95;;;;;;;7.71;100.00;100582.19;5026851;28;19967;-64
2021/11/03 06:26:06;;;;;;;40.97;18.40;;;;;;;7.78;100.00;100576.94;5026831;28;20165;-65
2021/11/03 06:28:50;;;;;;;40.03;19.33;;;;;;;7.93;100.00;100569.06;5026854;28;20064;-70
2021/11/03 06:31:36;;;;;;;43.63;17.98;;;;;;;7.92;100.00;100579.63;5016832;28;20211;-65
2021/11/03 06:34:21;;;;;;;42.60;17.85;;;;;;;7.94;100.00;100573.47;5001875;28;20652;-65
2021/11/03 06:37:06;;;;;;;43.70;19.67;;;;;;;7.95;100.00;100564.66;5012107;28;20429;-67
2021/11/03 06:39:50;;;;;;;44.78;20.00;;;;;;;7.88;100.00;100564.63;5034169;28;20051;-63
2021/11/03 06:42:35;;;;;;;45.03;19.98;;;;;;;7.99;100.00;100570.84;4998055;28;20055;-64
2021/11/03 06:45:22;;;;;;;44.25;19.85;;;;;;;7.98;100.00;100559.38;5012350;28;20092;-65
2021/11/03 06:48:08;;;;;;;42.13;19.17;;;;;;;7.99;100.00;100560.28;4997201;28;20056;-69
2021/11/03 06:50:52;;;;;;;44.53;19.92;;;;;;;8.08;100.00;100555.88;5012926;28;20593;-64
2021/11/03 06:53:38;;;;;;;45.83;19.77;;;;;;;8.04;100.00;100561.16;4997705;28;20064;-64
2021/11/03 06:56:23;;;;;;;45.33;20.13;;;;;;;8.10;100.00;100556.78;5022005;28;20107;-63
2021/11/03 06:59:07;;;;;;;44.85;19.33;;;;;;;8.03;100.00;100557.63;5025484;28;20084;-64
2021/11/03 07:01:52;;;;;;;40.90;19.38;;;;;;;8.08;100.00;100547.09;5025739;28;20075;-63
2021/11/03 07:04:36;;;;;;;46.17;20.42;;;;;;;8.18;100.00;100544.47;5024547;28;20049;-69
2021/11/03 07:07:21;;;;;;;44.78;20.55;;;;;;;8.29;100.00;100549.81;5025719;28;20088;-68
2021/11/03 07:10:09;;;;;;;43.58;20.95;;;;;;;8.22;100.00;100538.34;5010899;28;20076;-63
2021/11/03 07:12:54;;;;;;;51.38;21.80;;;;;;;8.19;100.00;100546.22;5009799;28;20104;-62
2021/11/03 07:15:40;;;;;;;42.65;20.63;;;;;;;8.15;100.00;100549.75;5022411;28;20044;-68
2021/11/03 07:18:26;;;;;;;41.88;20.00;;;;;;;8.20;100.00;100541.84;5003860;28;20103;-64
2021/11/03 07:21:10;;;;;;;46.33;21.42;;;;;;;8.34;100.00;100546.28;5024687;28;20057;-64
2021/11/03 07:23:55;;;;;;;44.08;19.88;;;;;;;8.38;100.00;100550.69;5027179;28;20052;-64
2021/11/03 07:26:42;;;;;;;41.03;20.17;;;;;;;8.22;100.00;100545.38;5023551;28;20092;-66
2021/11/03 07:29:28;;;;;;;48.97;21.55;;;;;;;8.22;100.00;100543.63;5020211;28;20520;-64
2021/11/03 07:32:13;;;;;;;48.17;22.17;;;;;;;8.29;100.00;100547.16;5008991;28;20178;-65
2021/11/03 07:34:57;;;;;;;44.95;20.48;;;;;;;8.34;100.00;100533.06;5005135;28;20064;-69
2021/11/03 07:37:42;;;;;;;42.55;19.92;;;;;;;8.34;100.00;100533.06;5011606;28;20818;-65
2021/11/03 07:40:33;;;;;;;38.38;19.75;;;;;;;8.46;100.00;100526.91;5002841;28;20148;-65
2021/11/03 07:43:20;;;;;;;48.33;21.55;;;;;;;8.53;100.00;100524.28;5019201;28;20092;-65
2021/11/03 07:46:06;;;;;;;42.60;20.33;;;;;;;8.63;100.00;100530.47;4976155;28;20052;-65
2021/11/03 07:48:51;;;;;;;41.42;20.75;;;;;;;8.57;100.00;100530.44;5022942;28;20975;-65
2021/11/03 07:51:36;;;;;;;41.38;21.08;;;;;;;8.40;100.00;100519.00;5022607;28;20064;-64
2021/11/03 07:54:21;;;;;;;44.35;20.90;;;;;;;8.28;100.00;100526.91;4991951;28;20096;-66
2021/11/03 07:57:07;;;;;;;42.92;21.05;;;;;;;8.36;100.00;100527.78;5002784;28;20409;-64
2021/11/03 07:59:52;;;;;;;41.95;19.85;;;;;;;8.41;100.00;100513.72;5007306;28;20128;-66
2021/11/03 08:02:36;;;;;;;41.88;21.50;;;;;;;8.33;100.00;100490.78;5022962;28;20606;-66
2021/11/03 08:05:27;;;;;;;39.45;20.40;;;;;;;8.45;100.00;100517.22;5021165;28;20071;-65
2021/11/03 08:08:14;;;;;;;42.08;20.02;;;;;;;8.43;100.00;100500.50;5021503;28;20053;-65
2021/11/03 08:11:00;;;;;;;43.30;20.70;;;;;;;8.45;100.00;100523.41;5023445;28;20449;-65
2021/11/03 08:13:45;;;;;;;45.58;21.88;;;;;;;8.33;100.00;100523.41;5008156;28;20473;-63
2021/11/03 08:16:50;;;;;;;41.55;21.17;;;;;;;8.39;100.00;100504.88;5010621;28;20087;-65
2021/11/03 08:19:48;;;;;;;43.60;21.43;;;;;;;8.46;100.00;100509.31;5021575;28;20092;-69
2021/11/03 08:22:35;;;;;;;49.08;22.80;;;;;;;8.56;100.00;100513.72;5008707;28;20303;-65
2021/11/03 08:25:24;;;;;;;45.38;21.65;;;;;;;8.60;100.00;100518.13;5018459;28;20133;-71
2021/11/03 08:28:10;;;;;;;44.40;22.25;;;;;;;8.53;100.00;100524.28;5023215;28;20068;-64
2021/11/03 08:30:58;;;;;;;50.63;22.50;;;;;;;8.49;100.00;100527.81;5017607;28;20067;-65
2021/11/03 08:33:45;;;;;;;44.25;21.52;;;;;;;8.55;100.00;100524.28;5026366;28;20115;-64
2021/11/03 08:36:31;;;;;;;44.45;21.90;;;;;;;8.46;100.00;100524.25;5011072;28;20056;-66
2021/11/03 08:39:15;;;;;;;47.63;22.65;;;;;;;8.53;100.00;100519.00;5023671;28;20130;-62
2021/11/03 08:42:00;;;;;;;39.58;21.25;;;;;;;8.62;100.00;100508.41;5022830;28;20053;-70
2021/11/03 08:44:46;;;;;;;41.72;21.77;;;;;;;8.53;100.00;100510.19;5023587;28;20106;-68
2021/11/03 08:47:33;;;;;;;43.80;22.38;;;;;;;8.54;100.00;100504.91;5025592;28;20049;-68
2021/11/03 08:50:25;;;;;;;42.25;22.17;;;;;;;8.61;100.00;100511.94;5025137;28;20056;-63
2021/11/03 08:53:11;;;;;;;48.75;22.65;;;;;;;8.48;100.00;100507.56;5014177;28;20040;-64
2021/11/03 08:55:56;;;;;;;43.58;21.95;;;;;;;8.61;100.00;100505.78;5029256;28;20131;-63
2021/11/03 08:58:41;;;;;;;46.22;21.63;;;;;;;8.74;100.00;100497.84;5024631;28;20056;-65
2021/11/03 09:01:27;;;;;;;46.63;21.65;;;;;;;8.83;100.00;100495.16;5013220;28;20136;-64
2021/11/03 09:04:13;;;;;;;40.83;22.50;;;;;;;8.82;100.00;100461.69;5021814;28;20053;-63
2021/11/03 09:06:59;;;;;;;47.38;22.63;;;;;;;8.88;100.00;100472.25;5023868;28;20052;-65
2021/11/03 09:09:47;;;;;;;47.58;22.35;;;;;;;8.89;100.00;100481.94;5023887;28;20147;-64
2021/11/03 09:12:33;;;;;;;42.50;21.77;;;;;;;8.97;100.00;100472.22;5001898;28;20064;-71
2021/11/03 09:15:20;;;;;;;45.03;22.60;;;;;;;8.91;100.00;100469.59;5006137;28;20049;-63
2021/11/03 09:18:06;;;;;;;43.67;22.98;;;;;;;8.86;100.00;100471.38;5007342;28;20051;-64
2021/11/03 09:20:53;;;;;;;48.85;22.25;;;;;;;8.80;100.00;100468.75;5025364;28;20052;-63
2021/11/03 09:23:39;;;;;;;44.53;22.58;;;;;;;8.92;100.00;100454.63;5020147;28;20048;-64
2021/11/03 09:26:24;;;;;;;43.28;22.75;;;;;;;9.05;100.00;100457.22;5008161;28;20131;-71
2021/11/03 09:29:10;;;;;;;;;;;;;;;9.09;100.00;100458.97;5029179;28;20052;-64
2021/11/03 09:31:56;;;;;;;47.20;21.63;;;;;;;9.05;100.00;100438.69;5021150;28;19925;-63
2021/11/03 09:34:43;;;;;;;45.70;23.17;;;;;;;9.06;100.00;100448.38;5009540;28;20063;-63
2021/11/03 09:37:29;;;;;;;44.13;22.13;;;;;;;9.17;100.00;100437.78;5010002;28;20064;-65
2021/11/03 09:40:30;;;;;;;46.08;23.10;;;;;;;8.98;100.00;100430.81;5013108;28;20052;-66
2021/11/03 09:43:26;;;;;;;47.03;23.08;;;;;;;9.04;100.00;100439.59;5025028;28;20587;-67
2021/11/03 09:46:23;;;;;;;44.80;22.42;;;;;;;9.17;100.00;100435.13;5025035;28;20191;-62
2021/11/03 09:49:35;;;;;;;41.13;22.23;;;;;;;9.21;100.00;100440.41;5025328;28;20880;-64
2021/11/03 09:52:39;;;;;;;44.70;23.75;;;;;;;9.25;100.00;100438.63;5020595;28;20967;-67
2021/11/03 09:55:29;;;;;;;46.65;23.38;;;;;;;9.24;100.00;100432.47;5006826;28;20056;-67
2021/11/03 09:58:54;;;;;;;44.47;23.90;;;;;;;9.34;100.00;100435.97;5022324;28;20119;-63
2021/11/03 10:01:47;;;;;;;46.35;22.63;;;;;;;9.27;100.00;100440.38;4999986;28;20125;-71
2021/11/03 10:04:51;;;;;;;44.70;22.67;;;;;;;9.38;100.00;100432.41;5028633;28;20083;-63
2021/11/03 10:07:51;;;;;;;42.75;22.60;;;;;;;9.35;100.00;100433.28;5024288;28;20456;-66
2021/11/03 10:10:49;;;;;;;41.50;22.38;;;;;;;9.29;100.00;100435.97;5012433;28;20060;-63
2021/11/03 10:13:39;;;;;;;43.22;22.52;;;;;;;9.29;100.00;100437.72;5021810;28;20051;-63
2021/11/03 10:16:42;;;;;;;48.55;22.77;;;;;;;9.27;100.00;100437.72;5008922;28;20057;-66
2021/11/03 10:19:37;;;;;;;45.38;23.83;;;;;;;9.27;100.00;100436.84;5025549;28;20099;-67
2021/11/03 10:22:38;;;;;;;45.75;21.95;;;;;;;9.39;100.00;100432.38;5023826;28;20072;-71
2021/11/03 10:25:26;;;;;;;43.00;22.88;;;;;;;9.37;100.00;100420.94;5009977;28;20052;-67
2021/11/03 10:28:27;;;;;;;41.40;22.17;;;;;;;9.40;100.00;100427.97;5023636;28;20425;-69
2021/11/03 10:31:27;;;;;;;43.63;22.65;;;;;;;9.37;100.00;100412.09;5023811;28;20099;-68
2021/11/03 10:34:24;;;;;;;44.70;23.23;;;;;;;9.36;100.00;100413.00;5026701;28;20106;-64
2021/11/03 10:37:22;;;;;;;41.97;22.60;;;;;;;9.21;100.00;100428.94;5023888;28;20298;-62
2021/11/03 10:40:21;;;;;;;42.30;22.48;;;;;;;9.20;100.00;100420.13;5021690;28;20085;-71
2021/11/03 10:43:26;;;;;;;44.08;22.52;;;;;;;9.25;100.00;100413.03;5026746;28;20056;-65
2021/11/03 10:46:38;;;;;;;47.47;24.10;;;;;;;9.21;100.00;100405.13;5009835;28;20044;-63
2021/11/03 10:49:34;;;;;;;46.53;24.00;;;;;;;9.17;100.00;100406.91;5026048;28;20106;-65
2021/11/03 10:52:20;;;;;;;45.70;23.55;;;;;;;9.04;100.00;100413.16;5028305;28;20564;-63
2021/11/03 10:55:21;;;;;;;43.60;22.45;;;;;;;9.02;100.00;100398.16;5018118;28;20405;-69
2021/11/03 10:58:12;;;;;;;44.67;23.25;;;;;;;8.99;100.00;100400.81;5001911;28;20183;-63
2021/11/03 11:01:08;;;;;;;42.22;23.60;;;;;;;8.96;100.00;100411.41;5009337;28;20048;-63
2021/11/03 11:04:05;;;;;;;46.53;24.38;;;;;;;8.90;100.00;100404.38;5024725;28;20048;-66
2021/11/03 11:06:55;;;;;;;47.63;25.60;;;;;;;8.79;100.00;100397.34;5024129;28;20048;-72
2021/11/03 11:09:52;;;;;;;44.72;24.23;;;;;;;8.81;100.00;100392.94;5009221;28;20075;-74
2021/11/03 11:12:44;;;;;;;44.72;24.45;;;;;;;8.87;100.00;100390.28;5007654;28;20068;-68
2021/11/03 11:15:44;;;;;;;41.33;23.75;;;;;;;8.97;100.00;100386.69;5010340;28;20144;-71
2021/11/03 11:18:43;;;;;;;42.83;22.95;;;;;;;8.93;100.00;100391.13;5031753;28;20064;-63
2021/11/03 11:21:53;;;;;;;38.78;22.10;;;;;;;8.84;100.00;100379.72;5011485;28;20477;-64
2021/11/03 11:25:20;;;;;;;43.92;22.90;;;;;;;8.73;100.00;100395.63;5028483;28;20060;-62
2021/11/03 11:28:18;;;;;;;;;;;;;;;8.77;100.00;100392.06;5004869;28;20115;-61
2021/11/03 11:31:27;;;;;;;41.05;21.13;;;;;;;8.78;100.00;100388.53;4999243;28;19972;-63
2021/11/03 11:34:33;;;;;;;35.80;20.30;;;;;;;8.82;100.00;100392.94;4972416;28;20101;-63
2021/11/03 11:37:43;;;;;;;38.88;21.02;;;;;;;8.96;100.00;100391.13;4966339;28;20128;-62
2021/11/03 11:40:51;;;;;;;34.70;19.80;;;;;;;8.96;100.00;100383.19;4984170;28;20057;-64
2021/11/03 11:43:53;;;;;;;32.38;19.42;;;;;;;8.91;100.00;100386.75;4931674;28;21246;-65
2021/11/03 11:46:38;;;;;;;34.80;18.50;;;;;;;8.94;100.00;100387.59;4944385;28;20611;-67
2021/11/03 11:49:29;;;;;;;37.08;20.42;;;;;;;8.90;100.00;100375.28;4928097;28;20114;-69
2021/11/03 11:52:27;;;;;;;35.28;19.15;;;;;;;8.90;100.00;100380.56;4945379;28;20098;-67
2021/11/03 11:55:12;;;;;;;37.40;19.20;;;;;;;8.82;100.00;100382.34;4942865;28;20105;-67
2021/11/03 11:58:07;;;;;;;34.83;18.90;;;;;;;8.86;100.00;100375.28;4946688;28;20089;-67
2021/11/03 12:01:14;;;;;;;32.55;18.58;;;;;;;8.80;100.00;100386.78;4931188;29;20050;-66
2021/11/03 12:04:20;;;;;;;33.53;17.73;;;;;;;8.79;100.00;100384.13;4949751;28;20045;-64
2021/11/03 12:07:15;;;;;;;35.42;19.50;;;;;;;8.79;100.00;100390.28;4968602;28;20904;-64
2021/11/03 12:10:04;;;;;;;35.03;18.90;;;;;;;8.73;100.00;100379.75;4981206;28;20069;-66
2021/11/03 12:13:08;;;;;;;36.45;18.60;;;;;;;8.90;100.00;100390.25;4978978;28;20156;-63
2021/11/03 12:15:54;;;;;;;33.20;18.83;;;;;;;8.91;100.00;100389.38;4982489;28;20097;-72
2021/11/03 12:18:41;;;;;;;;;;;;;;;8.84;100.00;100388.53;4954002;28;20335;-68
2021/11/03 12:21:25;;;;;;;33.67;18.63;;;;;;;8.84;100.00;100388.53;5021523;28;19967;-67
2021/11/03 12:24:35;;;;;;;35.50;19.55;;;;;;;8.78;100.00;100390.28;5024932;28;20048;-68
2021/11/03 12:27:25;;;;;;;38.22;20.23;;;;;;;8.83;100.00;100392.03;5022420;28;20064;-64
2021/11/03 12:30:18;;;;;;;40.53;20.40;;;;;;;8.70;100.00;100382.38;5024434;28;20056;-65
2021/11/03 12:33:10;;;;;;;43.60;22.30;;;;;;;8.77;100.00;100392.06;5024076;28;20048;-66
2021/11/03 12:36:04;;;;;;;36.58;20.40;;;;;;;8.77;100.00;100392.06;5016034;28;20048;-70
2021/11/03 12:38:53;;;;;;;39.55;21.30;;;;;;;8.84;100.00;100388.53;5010556;28;20471;-74
2021/11/03 12:41:42;;;;;;;41.45;21.92;;;;;;;8.83;100.00;100376.16;4995133;28;20072;-64
2021/11/03 12:44:41;;;;;;;42.00;21.80;;;;;;;8.77;100.00;100383.25;5009583;28;20052;-64
2021/11/03 12:47:33;;;;;;;42.35;21.73;;;;;;;8.74;100.00;100391.19;5006235;28;20056;-71
2021/11/03 12:50:28;;;;;;;41.97;21.77;;;;;;;8.79;100.00;100385.00;5009551;28;20140;-67
2021/11/03 12:53:21;;;;;;;39.95;21.27;;;;;;;8.75;100.00;100375.31;5009318;28;20049;-68